Rochester, NY (14618)

3:18 PM EST on March 04, 2015 (GMT -0500)
Evans Farm | Change Station
CLOSE
Current Station
Personal Weather Station
Location: Rochester, NY
Elevation: 512 ft
Nearby Weather Stations

Elev 512 ft 43.11 °N, 77.56 °W | Updated 13 seconds ago

Overcast
Overcast
33.5 °F
Feels Like 26 °F
N
10.0
Wind Variable Wind from SW
Gusts 10.0 mph

Today
High -- | Low -- °F
--% Chance of Precip.
Yesterday
High -- | Low -- °F
Precip. -- in
6:41 AM 6:02 PM
Waxing Gibbous, 99% visible
Pressure 29.89 in
Visibility 10.0 miles
Clouds Overcast 3100 ft
Windchill 26 °F
Dew Point 24 °F
Humidity 67%
Rainfall 0.11 in
Snow Depth Not available.
UV 1 out of 12
Pollen 1.30 out of 12
Air Quality Not available.
Flu Activity Not available.
METAR KROC 041954Z 26017G23KT 10SM OVC031 01/M06 A2986 RMK AO2 SLP120 T00111056

More Conditions Fewer Conditions

Pressure 29.89 in
Visibility 10.0 miles
Clouds Overcast 3100 ft
Windchill 26 °F
Dew Point 24 °F
Humidity 67%
Rainfall 0.11 in
Snow Depth Not available.
UV 1 out of 12
Pollen 1.30 out of 12
Air Quality Not available.
Flu Activity Not available.
METAR KROC 041954Z 26017G23KT 10SM OVC031 01/M06 A2986 RMK AO2 SLP120 T00111056

More Conditions Fewer Conditions

10-Day Weather Forecast

Almanac

Astronomy

Mar. 04, 2015 Rise Set
Actual Time
Civil Twilight
Nautical Twilight
Astronomical Twilight
Moon
Length of Visible Light
Length of Day
Tomorrow will be .
, % of the Moon is Illuminated

Today's Extremes

State Highs State Lows

Community

WunderPhotos

Upload Photos

1,802,567 photos uploaded!

WunderBlogs® & News

Nearby

Air Quality

  Air Quality AQ Index Pollutant
Not available.

Snow Depth

Station Depth Elevation

Earthquake Activity

City Distance Mag. Time & Date
Minimum magnitude displayed is 2.5.

Coastal Water Temperatures

Place Temperature

Nearby Weather Stations